Portada
METAR-TAF:

METAR-TAF

Aeropuertos :

Mécheria, Argelia

latitud: 34-56N, longitud: 000-26W, altitud: 1149 m

Observación

El informe se hizo hace 1 hora y 1 minutos, a las 19:00 UTC
Viento 6 kt del suroeste
Temperatura 8°C
Humedad 76%
Presión 1021 hPa
Visibilidad 10 km o más
sin nubes por debajo de 1500 m y sin presencia de cumulonimbus.

METAR: DAAY 291900Z 22006KT CAVOK 08/04 Q1021

Hora: 21:01 (20:01 UTC)

Pronóstico

El informe se hizo hace 3 horas y 1 minutos, a las 17:00 UTC
Pronóstico válido del 29 a las 18 UTC al 30 a las 03 UTC
Viento 10 kt del sur-suroeste
Visibilidad 10 km o más
sin nubes por debajo de 1500 m y sin presencia de cumulonimbus.
Evolucionando progresivamente
del 29 a las 20 UTC al 29 a las 23 UTC
Viento 10 kt del sur-sureste
Visibilidad 10 km o más
Nubes dispersas a una altura de 2600 ft

TAF: DAAY 291700Z 2918/3003 20010KT CAVOK BECMG 2920/2923 15010KT 9999 SCT026

Observaciones y pronósticos meteorológicos de más de 4000 aeropuertos (mensajes METAR y TAF).

Los puntos amarillos y rojos representan las estaciones disponibles.

Ponga el ratón en el punto deseado para ver el nombre de la estación.

Haga clic para ver las observaciones y los pronósticos meteorológicos.

Para cambiar el mapa : haga clic en los botones verdes con una cruz de color negro para hacer un zoom, en el botón verde con un guión para alejar o en las flechas verdes para mapas adyacentes.


METAR-TAF: